Time;durP1;ratioP1;P1;durP2;ratioP2;P2;SDS_P1;SDS_P2;PMS_P1;PMS_P2;Temp;Humidity;BMP_temperature;BMP_pressure;BME280_temperature;BME280_humidity;BME280_pressure;Samples;Min_cycle;Max_cycle;Signal;HPM_P1;HPM_P2
2022/03/09 00:00:07;;;;;;;;;;;;;;;;;;5042439;28;19913;-48
2022/03/09 00:02:32;;;;;;;;;;;;;;;;;;5047422;28;19912;-48
2022/03/09 00:04:57;;;;;;;;;;;;;;;;;;5054318;28;20427;-48
2022/03/09 00:07:22;;;;;;;;;;;;;;;;;;5043561;28;20375;-48
2022/03/09 00:09:47;;;;;;;;;;;;;;;;;;5034829;28;20295;-49
2022/03/09 00:12:12;;;;;;;;;;;;;;;;;;5043904;28;19917;-50
2022/03/09 00:14:37;;;;;;;;;;;;;;;;;;5054437;28;19935;-49
2022/03/09 00:17:02;;;;;;;;;;;;;;;;;;5054555;28;19920;-50
2022/03/09 00:19:28;;;;;;;;;;;;;;;;;;5052161;28;19931;-48
2022/03/09 00:21:53;;;;;;;;;;;;;;;;;;5054280;28;20290;-51
2022/03/09 00:24:19;;;;;;;;;;;;;;;;;;5054237;28;20339;-49
2022/03/09 00:26:44;;;;;;;;;;;;;;;;;;5052925;28;20272;-49
2022/03/09 00:29:09;;;;;;;;;;;;;;;;;;5054215;28;19912;-50
2022/03/09 00:31:34;;;;;;;;;;;;;;;;;;5054545;28;20006;-50
2022/03/09 00:33:59;;;;;;;;;;;;;;;;;;5054085;28;20047;-49
2022/03/09 00:36:24;;;;;;;;;;;;;;;;;;5053847;28;19999;-48
2022/03/09 00:38:49;;;;;;;;;;;;;;;;;;5054459;28;19992;-49
2022/03/09 00:41:15;;;;;;;;;;;;;;;;;;5054150;28;19919;-48
2022/03/09 00:43:40;;;;;;;;;;;;;;;;;;5054492;28;19909;-47
2022/03/09 00:46:05;;;;;;;;;;;;;;;;;;5051201;28;19920;-48
2022/03/09 00:48:30;;;;;;;;;;;;;;;;;;5034492;28;20424;-48
2022/03/09 00:50:55;;;;;;;;;;;;;;;;;;5049456;28;20327;-49
2022/03/09 00:53:20;;;;;;;;;;;;;;;;;;5053934;28;19982;-48
2022/03/09 00:55:45;;;;;;;;;;;;;;;;;;5053410;28;19966;-49
2022/03/09 00:58:10;;;;;;;;;;;;;;;;;;5037088;28;19920;-51
2022/03/09 01:00:35;;;;;;;;;;;;;;;;;;5054194;28;20374;-48
2022/03/09 01:03:01;;;;;;;;;;;;;;;;;;5053850;28;19913;-49
2022/03/09 01:05:26;;;;;;;;;;;;;;;;;;5053132;28;20379;-48
2022/03/09 01:07:51;;;;;;;;;;;;;;;;;;5039078;28;20280;-49
2022/03/09 01:10:16;;;;;;;;;;;;;;;;;;5039307;28;20290;-48
2022/03/09 01:12:41;;;;;;;;;;;;;;;;;;5057808;28;19917;-50
2022/03/09 01:15:06;;;;;;;;;;;;;;;;;;5057508;28;20015;-49
2022/03/09 01:17:31;;;;;;;;;;;;;;;;;;5043394;28;19913;-50
2022/03/09 01:19:56;;;;;;;;;;;;;;;;;;5037950;28;19921;-48
2022/03/09 01:22:21;;;;;;;;;;;;;;;;;;5055344;28;20347;-48
2022/03/09 01:24:47;;;;;;;;;;;;;;;;;;5057961;28;20339;-48
2022/03/09 01:27:12;;;;;;;;;;;;;;;;;;5056080;28;19913;-48
2022/03/09 01:29:37;;;;;;;;;;;;;;;;;;5057910;28;19916;-48
2022/03/09 01:32:02;;;;;;;;;;;;;;;;;;5057368;28;19913;-48
2022/03/09 01:34:27;;;;;;;;;;;;;;;;;;5057568;28;19909;-47
2022/03/09 01:36:52;;;;;;;;;;;;;;;;;;5049337;28;19913;-48
2022/03/09 01:39:17;;;;;;;;;;;;;;;;;;5037765;28;20276;-49
2022/03/09 01:41:42;;;;;;;;;;;;;;;;;;5047721;28;19935;-50
2022/03/09 01:44:07;;;;;;;;;;;;;;;;;;5057110;28;19920;-48
2022/03/09 01:46:32;;;;;;;;;;;;;;;;;;5057140;28;20366;-49
2022/03/09 01:48:58;;;;;;;;;;;;;;;;;;5056900;28;19919;-48
2022/03/09 01:51:23;;;;;;;;;;;;;;;;;;5056881;28;20326;-48
2022/03/09 01:53:48;;;;;;;;;;;;;;;;;;5057798;28;20379;-50
2022/03/09 01:56:13;;;;;;;;;;;;;;;;;;5056368;28;19919;-48
2022/03/09 01:58:39;;;;;;;;;;;;;;;;;;5057428;28;20375;-48
2022/03/09 02:01:04;;;;;;;;;;;;;;;;;;5056906;28;20317;-49
2022/03/09 02:03:29;;;;;;;;;;;;;;;;;;5056948;28;19935;-48
2022/03/09 02:05:54;;;;;;;;;;;;;;;;;;5056891;28;19970;-48
2022/03/09 02:11:03;;;;;;;;;;;;;;;;;;5039449;28;19962;-50
2022/03/09 02:13:28;;;;;;;;;;;;;;;;;;5056925;28;19913;-48
2022/03/09 02:15:53;;;;;;;;;;;;;;;;;;5056810;28;19980;-48
2022/03/09 02:18:18;;;;;;;;;;;;;;;;;;5053497;28;20336;-48
2022/03/09 02:20:44;;;;;;;;;;;;;;;;;;5054527;28;20008;-47
2022/03/09 02:23:09;;;;;;;;;;;;;;;;;;5056737;28;19924;-49
2022/03/09 02:25:35;;;;;;;;;;;;;;;;;;5055954;28;19909;-48
2022/03/09 02:28:00;;;;;;;;;;;;;;;;;;5040335;28;20356;-49
2022/03/09 02:30:25;;;;;;;;;;;;;;;;;;5050046;28;19944;-47
2022/03/09 02:32:50;;;;;;;;;;;;;;;;;;5056417;28;20430;-48
2022/03/09 02:35:15;;;;;;;;;;;;;;;;;;5056759;28;20015;-49
2022/03/09 02:37:40;;;;;;;;;;;;;;;;;;5040562;28;20316;-47
2022/03/09 02:40:05;;;;;;;;;;;;;;;;;;5046454;28;19940;-48
2022/03/09 02:42:31;;;;;;;;;;;;;;;;;;5056393;28;19913;-47
2022/03/09 02:44:56;;;;;;;;;;;;;;;;;;5055796;28;20275;-49
2022/03/09 02:47:21;;;;;;;;;;;;;;;;;;5042770;28;19913;-48
2022/03/09 02:49:46;;;;;;;;;;;;;;;;;;5041885;28;19921;-49
2022/03/09 02:52:11;;;;;;;;;;;;;;;;;;5056284;28;19908;-48
2022/03/09 02:54:36;;;;;;;;;;;;;;;;;;5055968;28;20363;-48
2022/03/09 02:57:01;;;;;;;;;;;;;;;;;;5054327;28;20310;-48
2022/03/09 02:59:27;;;;;;;;;;;;;;;;;;5055809;28;20289;-48
2022/03/09 03:01:52;;;;;;;;;;;;;;;;;;5056107;28;20279;-47
2022/03/09 03:04:18;;;;;;;;;;;;;;;;;;5055631;28;19909;-48
2022/03/09 03:06:43;;;;;;;;;;;;;;;;;;5055486;28;19916;-49
2022/03/09 03:09:08;;;;;;;;;;;;;;;;;;5055194;28;19958;-48
2022/03/09 03:11:33;;;;;;;;;;;;;;;;;;5055767;28;20410;-49
2022/03/09 03:13:58;;;;;;;;;;;;;;;;;;5055704;28;19912;-48
2022/03/09 03:16:23;;;;;;;;;;;;;;;;;;5050734;28;19913;-48
2022/03/09 03:18:48;;;;;;;;;;;;;;;;;;5035514;28;19975;-48
2022/03/09 03:21:13;;;;;;;;;;;;;;;;;;5052561;28;19959;-48
2022/03/09 03:23:39;;;;;;;;;;;;;;;;;;5055851;28;20310;-50
2022/03/09 03:26:04;;;;;;;;;;;;;;;;;;5052263;28;19966;-49
2022/03/09 03:28:29;;;;;;;;;;;;;;;;;;5035583;28;20426;-48
2022/03/09 03:30:54;;;;;;;;;;;;;;;;;;5051810;28;20341;-48
2022/03/09 03:33:19;;;;;;;;;;;;;;;;;;5054550;28;20015;-48
2022/03/09 03:35:44;;;;;;;;;;;;;;;;;;5055071;28;19913;-48
2022/03/09 03:38:09;;;;;;;;;;;;;;;;;;5054356;28;19920;-47
2022/03/09 03:40:34;;;;;;;;;;;;;;;;;;5054869;28;19924;-48
2022/03/09 03:42:59;;;;;;;;;;;;;;;;;;5055450;28;19955;-48
2022/03/09 03:45:24;;;;;;;;;;;;;;;;;;5054976;28;19916;-50
2022/03/09 03:47:50;;;;;;;;;;;;;;;;;;5054399;28;20351;-49
2022/03/09 03:50:15;;;;;;;;;;;;;;;;;;5054945;28;19916;-51
2022/03/09 03:52:40;;;;;;;;;;;;;;;;;;5055166;28;19913;-49
2022/03/09 03:55:05;;;;;;;;;;;;;;;;;;5054835;28;19913;-48
2022/03/09 03:57:30;;;;;;;;;;;;;;;;;;5049027;28;20283;-50
2022/03/09 03:59:55;;;;;;;;;;;;;;;;;;5055009;28;19915;-47
2022/03/09 04:02:20;;;;;;;;;;;;;;;;;;5054974;28;19916;-48
2022/03/09 04:04:45;;;;;;;;;;;;;;;;;;5054415;28;19920;-48
2022/03/09 04:07:10;;;;;;;;;;;;;;;;;;5043832;28;19920;-48
2022/03/09 04:09:35;;;;;;;;;;;;;;;;;;5051522;28;19917;-49
2022/03/09 04:12:01;;;;;;;;;;;;;;;;;;5054962;28;19962;-51
2022/03/09 04:14:26;;;;;;;;;;;;;;;;;;5054136;28;19924;-50
2022/03/09 04:16:51;;;;;;;;;;;;;;;;;;5047529;28;19919;-48
2022/03/09 04:19:16;;;;;;;;;;;;;;;;;;5054116;28;20401;-49
2022/03/09 04:21:41;;;;;;;;;;;;;;;;;;5055004;28;20379;-49
2022/03/09 04:24:06;;;;;;;;;;;;;;;;;;5054276;28;19963;-48
2022/03/09 04:26:31;;;;;;;;;;;;;;;;;;5045688;28;20291;-49
2022/03/09 04:28:56;;;;;;;;;;;;;;;;;;5040078;28;20363;-48
2022/03/09 04:31:22;;;;;;;;;;;;;;;;;;5034895;28;20360;-48
2022/03/09 04:33:47;;;;;;;;;;;;;;;;;;5048410;28;20279;-48
2022/03/09 04:36:12;;;;;;;;;;;;;;;;;;5049771;28;19913;-48
2022/03/09 04:38:37;;;;;;;;;;;;;;;;;;5046446;28;19915;-49
2022/03/09 04:41:02;;;;;;;;;;;;;;;;;;5054497;28;19919;-48
2022/03/09 04:43:27;;;;;;;;;;;;;;;;;;5053968;28;19909;-48
2022/03/09 04:45:52;;;;;;;;;;;;;;;;;;5052560;28;19920;-48
2022/03/09 04:48:17;;;;;;;;;;;;;;;;;;5042420;28;20390;-49
2022/03/09 04:50:42;;;;;;;;;;;;;;;;;;5054157;28;20351;-49
2022/03/09 04:53:07;;;;;;;;;;;;;;;;;;5053987;28;20032;-49
2022/03/09 04:55:33;;;;;;;;;;;;;;;;;;5054011;28;19919;-49
2022/03/09 04:57:58;;;;;;;;;;;;;;;;;;5039492;28;19952;-48
2022/03/09 05:00:23;;;;;;;;;;;;;;;;;;5054407;28;19916;-49
2022/03/09 05:02:48;;;;;;;;;;;;;;;;;;5053911;28;19909;-49
2022/03/09 05:05:13;;;;;;;;;;;;;;;;;;5053937;28;19913;-50
2022/03/09 05:07:38;;;;;;;;;;;;;;;;;;5039428;28;19909;-51
2022/03/09 05:10:03;;;;;;;;;;;;;;;;;;5054056;28;19913;-48
2022/03/09 05:12:30;;;;;;;;;;;;;;;;;;5054234;28;19917;-48
2022/03/09 05:14:55;;;;;;;;;;;;;;;;;;5053554;28;19916;-49
2022/03/09 05:17:20;;;;;;;;;;;;;;;;;;5053513;28;19913;-50
2022/03/09 05:19:45;;;;;;;;;;;;;;;;;;5053520;28;20434;-51
2022/03/09 05:22:10;;;;;;;;;;;;;;;;;;5053776;28;19913;-50
2022/03/09 05:24:35;;;;;;;;;;;;;;;;;;5053345;28;20419;-48
2022/03/09 05:27:00;;;;;;;;;;;;;;;;;;5043707;28;20012;-48
2022/03/09 05:29:26;;;;;;;;;;;;;;;;;;5045104;28;19921;-48
2022/03/09 05:31:51;;;;;;;;;;;;;;;;;;5034302;28;19913;-49
2022/03/09 05:34:16;;;;;;;;;;;;;;;;;;5049069;28;19917;-50
2022/03/09 05:36:41;;;;;;;;;;;;;;;;;;5047261;28;19913;-48
2022/03/09 05:39:06;;;;;;;;;;;;;;;;;;5047380;28;19920;-48
2022/03/09 05:41:31;;;;;;;;;;;;;;;;;;5054042;28;19909;-48
2022/03/09 05:43:57;;;;;;;;;;;;;;;;;;5053366;28;19919;-50
2022/03/09 05:46:22;;;;;;;;;;;;;;;;;;5052757;28;19913;-50
2022/03/09 05:48:47;;;;;;;;;;;;;;;;;;5053459;28;20241;-48
2022/03/09 05:51:12;;;;;;;;;;;;;;;;;;5053258;28;19919;-47
2022/03/09 05:53:39;;;;;;;;;;;;;;;;;;5053738;28;19920;-49
2022/03/09 05:56:04;;;;;;;;;;;;;;;;;;5052534;28;20272;-50
2022/03/09 05:58:29;;;;;;;;;;;;;;;;;;5037364;28;19913;-48
2022/03/09 06:00:54;;;;;;;;;;;;;;;;;;5037350;28;19913;-48
2022/03/09 06:03:19;;;;;;;;;;;;;;;;;;5037428;28;19905;-50
2022/03/09 06:05:44;;;;;;;;;;;;;;;;;;5036990;28;19913;-48
2022/03/09 06:08:09;;;;;;;;;;;;;;;;;;5039775;28;19917;-48
2022/03/09 06:10:35;;;;;;;;;;;;;;;;;;5057153;28;19909;-48
2022/03/09 06:13:00;;;;;;;;;;;;;;;;;;5056657;28;19939;-48
2022/03/09 06:15:25;;;;;;;;;;;;;;;;;;5056795;28;19974;-48
2022/03/09 06:17:50;;;;;;;;;;;;;;;;;;5056338;28;19920;-47
2022/03/09 06:20:15;;;;;;;;;;;;;;;;;;5056238;28;19921;-47
2022/03/09 06:22:40;;;;;;;;;;;;;;;;;;5056663;28;19980;-50
2022/03/09 06:25:05;;;;;;;;;;;;;;;;;;5057102;28;20455;-50
2022/03/09 06:27:30;;;;;;;;;;;;;;;;;;5053052;28;20429;-47
2022/03/09 06:29:57;;;;;;;;;;;;;;;;;;5052680;28;19959;-48
2022/03/09 06:32:22;;;;;;;;;;;;;;;;;;5044724;28;19917;-48
2022/03/09 06:34:47;;;;;;;;;;;;;;;;;;5047059;28;21857;-48
2022/03/09 06:37:12;;;;;;;;;;;;;;;;;;5041869;28;20551;-52
2022/03/09 06:39:37;;;;;;;;;;;;;;;;;;5052133;28;19913;-52
2022/03/09 06:42:03;;;;;;;;;;;;;;;;;;5048490;28;19913;-53
2022/03/09 06:44:28;;;;;;;;;;;;;;;;;;5046760;28;19921;-52
2022/03/09 06:46:53;;;;;;;;;;;;;;;;;;5040575;28;19921;-53
2022/03/09 06:49:18;;;;;;;;;;;;;;;;;;5041669;28;19928;-53
2022/03/09 06:51:43;;;;;;;;;;;;;;;;;;5042780;28;19931;-53
2022/03/09 06:54:08;;;;;;;;;;;;;;;;;;5041649;28;20036;-53
2022/03/09 06:56:33;;;;;;;;;;;;;;;;;;5035075;28;19913;-54
2022/03/09 06:58:58;;;;;;;;;;;;;;;;;;5042026;28;20019;-51
2022/03/09 07:01:23;;;;;;;;;;;;;;;;;;5011903;28;19921;-51
2022/03/09 07:03:48;;;;;;;;;;;;;;;;;;5011787;28;19920;-52
2022/03/09 07:06:13;;;;;;;;;;;;;;;;;;5010891;28;19917;-52
2022/03/09 07:08:39;;;;;;;;;;;;;;;;;;5009358;28;20008;-52
2022/03/09 07:11:04;;;;;;;;;;;;;;;;;;4994274;28;20695;-53
2022/03/09 07:13:29;;;;;;;;;;;;;;;;;;4985758;28;19979;-52
2022/03/09 07:15:54;;;;;;;;;;;;;;;;;;4949128;28;21575;-52
2022/03/09 07:18:19;;;;;;;;;;;;;;;;;;4904434;28;20952;-53
2022/03/09 07:20:45;;;;;;;;;;;;;;;;;;4833744;28;21484;-53
2022/03/09 07:23:10;;;;;;;;;;;;;;;;;;4790859;28;20149;-53
2022/03/09 07:25:35;;;;;;;;;;;;;;;;;;4733603;28;19942;-54
2022/03/09 07:28:00;;;;;;;;;;;;;;;;;;4670704;28;21433;-52
2022/03/09 07:30:25;;;;;;;;;;;;;;;;;;4680175;28;20866;-53
2022/03/09 07:32:50;;;;;;;;;;;;;;;;;;4752193;28;19932;-53
2022/03/09 07:35:15;;;;;;;;;;;;;;;;;;4778490;28;23862;-52
2022/03/09 07:37:40;;;;;;;;;;;;;;;;;;4797849;28;20592;-52
2022/03/09 07:40:05;;;;;;;;;;;;;;;;;;4801087;28;19983;-53
2022/03/09 07:42:31;;;;;;;;;;;;;;;;;;4840746;28;19927;-53
2022/03/09 07:44:56;;;;;;;;;;;;;;;;;;4801861;28;19928;-53
2022/03/09 07:47:21;;;;;;;;;;;;;;;;;;4836814;28;19925;-53
2022/03/09 07:49:46;;;;;;;;;;;;;;;;;;4839390;28;20090;-53
2022/03/09 07:52:11;;;;;;;;;;;;;;;;;;4874012;28;28221;-53
2022/03/09 07:54:36;;;;;;;;;;;;;;;;;;4857190;28;23507;-55
2022/03/09 07:57:01;;;;;;;;;;;;;;;;;;4839701;28;20513;-53
2022/03/09 07:59:27;;;;;;;;;;;;;;;;;;4851849;28;20592;-55
2022/03/09 08:01:53;;;;;;;;;;;;;;;;;;4837451;28;19921;-52
2022/03/09 08:04:18;;;;;;;;;;;;;;;;;;4852457;28;20068;-53
2022/03/09 08:06:43;;;;;;;;;;;;;;;;;;4857381;28;19921;-52
2022/03/09 08:09:09;;;;;;;;;;;;;;;;;;4805448;28;23255;-53
2022/03/09 08:11:34;;;;;;;;;;;;;;;;;;4815641;28;20034;-53
2022/03/09 08:13:59;;;;;;;;;;;;;;;;;;4715842;28;20835;-53
2022/03/09 08:16:24;;;;;;;;;;;;;;;;;;4658865;28;20572;-54
2022/03/09 08:18:49;;;;;;;;;;;;;;;;;;4633446;28;20007;-53
2022/03/09 08:21:14;;;;;;;;;;;;;;;;;;4598769;28;22386;-54
2022/03/09 08:23:39;;;;;;;;;;;;;;;;;;4538389;28;20060;-53
2022/03/09 08:26:05;;;;;;;;;;;;;;;;;;4629402;28;22295;-53
2022/03/09 08:28:30;;;;;;;;;;;;;;;;;;4733259;28;19920;-53
2022/03/09 08:30:55;;;;;;;;;;;;;;;;;;4784413;28;20489;-53
2022/03/09 08:33:20;;;;;;;;;;;;;;;;;;4786316;28;19925;-53
2022/03/09 08:35:45;;;;;;;;;;;;;;;;;;4786450;28;19944;-53
2022/03/09 08:38:10;;;;;;;;;;;;;;;;;;4814124;28;20651;-54
2022/03/09 08:40:35;;;;;;;;;;;;;;;;;;4780772;28;19924;-54
2022/03/09 08:43:00;;;;;;;;;;;;;;;;;;4750148;28;22521;-53
2022/03/09 08:45:26;;;;;;;;;;;;;;;;;;4737736;28;21071;-53
2022/03/09 08:47:51;;;;;;;;;;;;;;;;;;4753538;28;20548;-53
2022/03/09 08:50:16;;;;;;;;;;;;;;;;;;4783055;28;20694;-54
2022/03/09 08:52:41;;;;;;;;;;;;;;;;;;4761334;28;20447;-54
2022/03/09 08:55:06;;;;;;;;;;;;;;;;;;4732451;28;21449;-54
2022/03/09 08:57:31;;;;;;;;;;;;;;;;;;4762242;28;19999;-55
2022/03/09 08:59:57;;;;;;;;;;;;;;;;;;4764219;28;19962;-53
2022/03/09 09:02:22;;;;;;;;;;;;;;;;;;4791538;28;20017;-54
2022/03/09 09:04:47;;;;;;;;;;;;;;;;;;4754269;28;20108;-54
2022/03/09 09:07:12;;;;;;;;;;;;;;;;;;4741215;28;19979;-53
2022/03/09 09:09:37;;;;;;;;;;;;;;;;;;4693081;28;20492;-57
2022/03/09 09:12:03;;;;;;;;;;;;;;;;;;4551636;28;21412;-55
2022/03/09 09:14:28;;;;;;;;;;;;;;;;;;4566278;28;20817;-54
2022/03/09 09:16:53;;;;;;;;;;;;;;;;;;4646411;28;20759;-51
2022/03/09 09:19:18;;;;;;;;;;;;;;;;;;4761404;23;19939;-55
2022/03/09 09:21:43;;;;;;;;;;;;;;;;;;4680825;28;21744;-53
2022/03/09 09:24:09;;;;;;;;;;;;;;;;;;4691316;28;19936;-53
2022/03/09 09:26:34;;;;;;;;;;;;;;;;;;4561740;28;21606;-54
2022/03/09 09:28:59;;;;;;;;;;;;;;;;;;4412985;28;19920;-55
2022/03/09 09:31:24;;;;;;;;;;;;;;;;;;4424726;28;23751;-53
2022/03/09 09:33:49;;;;;;;;;;;;;;;;;;4563906;28;20930;-53
2022/03/09 09:36:14;;;;;;;;;;;;;;;;;;4656180;28;21627;-53
2022/03/09 09:38:39;;;;;;;;;;;;;;;;;;4716560;28;20006;-55
2022/03/09 09:41:08;;;;;;;;;;;;;;;;;;4748341;28;20326;-54
2022/03/09 09:43:33;;;;;;;;;;;;;;;;;;4756444;28;22050;-54
2022/03/09 09:45:59;;;;;;;;;;;;;;;;;;4768596;28;19921;-55
2022/03/09 09:48:25;;;;;;;;;;;;;;;;;;4750997;28;21681;-53
2022/03/09 09:50:52;;;;;;;;;;;;;;;;;;4763689;28;19921;-54
2022/03/09 09:53:17;;;;;;;;;;;;;;;;;;4745854;28;20667;-54
2022/03/09 09:55:42;;;;;;;;;;;;;;;;;;4697045;28;20647;-56
2022/03/09 09:58:07;;;;;;;;;;;;;;;;;;4719988;28;20749;-55
2022/03/09 10:00:32;;;;;;;;;;;;;;;;;;4690208;28;21649;-53
2022/03/09 10:02:58;;;;;;;;;;;;;;;;;;4733796;28;20046;-56
2022/03/09 10:05:23;;;;;;;;;;;;;;;;;;4756260;28;20016;-54
2022/03/09 10:07:48;;;;;;;;;;;;;;;;;;4738901;28;24149;-53
2022/03/09 10:10:13;;;;;;;;;;;;;;;;;;4736349;28;20043;-54
2022/03/09 10:12:39;;;;;;;;;;;;;;;;;;4737686;28;19921;-54
2022/03/09 10:15:04;;;;;;;;;;;;;;;;;;4735658;28;22769;-54
2022/03/09 10:17:34;;;;;;;;;;;;;;;;;;4732292;28;21484;-55
2022/03/09 10:20:00;;;;;;;;;;;;;;;;;;4655200;28;20150;-55
2022/03/09 10:22:25;;;;;;;;;;;;;;;;;;4516850;28;23928;-54
2022/03/09 10:24:50;;;;;;;;;;;;;;;;;;4496686;28;19928;-54
2022/03/09 10:27:15;;;;;;;;;;;;;;;;;;4537538;28;21930;-54
2022/03/09 10:29:40;;;;;;;;;;;;;;;;;;4602791;28;20014;-54
2022/03/09 10:32:05;;;;;;;;;;;;;;;;;;4721344;28;20720;-54
2022/03/09 10:34:35;;;;;;;;;;;;;;;;;;4748054;28;19984;-54
2022/03/09 10:37:00;;;;;;;;;;;;;;;;;;4755511;28;20703;-54
2022/03/09 10:39:25;;;;;;;;;;;;;;;;;;4775682;28;19928;-55
2022/03/09 10:41:50;;;;;;;;;;;;;;;;;;4740108;28;20930;-54
2022/03/09 10:44:16;;;;;;;;;;;;;;;;;;4709462;28;22096;-56
2022/03/09 10:46:41;;;;;;;;;;;;;;;;;;4732192;28;20385;-53
2022/03/09 10:49:07;;;;;;;;;;;;;;;;;;4750719;28;19931;-55
2022/03/09 10:51:33;;;;;;;;;;;;;;;;;;4720574;28;20664;-54
2022/03/09 10:53:58;;;;;;;;;;;;;;;;;;4677873;28;19925;-54
2022/03/09 10:56:23;;;;;;;;;;;;;;;;;;4747759;28;19921;-54
2022/03/09 10:58:48;;;;;;;;;;;;;;;;;;4699288;28;21908;-54
2022/03/09 11:01:14;;;;;;;;;;;;;;;;;;4674543;28;22377;-55
2022/03/09 11:03:42;;;;;;;;;;;;;;;;;;4634634;28;20751;-56
2022/03/09 11:06:08;;;;;;;;;;;;;;;;;;4605137;28;21812;-54
2022/03/09 11:08:34;;;;;;;;;;;;;;;;;;4568032;28;22166;-55
2022/03/09 11:10:59;;;;;;;;;;;;;;;;;;4488620;28;21161;-55
2022/03/09 11:13:24;;;;;;;;;;;;;;;;;;4554265;28;21174;-56
2022/03/09 11:15:49;;;;;;;;;;;;;;;;;;4492036;28;21039;-54
2022/03/09 11:18:14;;;;;;;;;;;;;;;;;;4577782;28;20426;-55
2022/03/09 11:20:40;;;;;;;;;;;;;;;;;;4679716;28;20066;-55
2022/03/09 11:23:05;;;;;;;;;;;;;;;;;;4684577;28;20668;-54
2022/03/09 11:25:30;;;;;;;;;;;;;;;;;;4678150;28;19920;-54
2022/03/09 11:27:56;;;;;;;;;;;;;;;;;;4733395;28;22765;-55
2022/03/09 11:30:21;;;;;;;;;;;;;;;;;;4740845;28;20541;-55
2022/03/09 11:32:46;;;;;;;;;;;;;;;;;;4747971;28;21031;-57
2022/03/09 11:35:12;;;;;;;;;;;;;;;;;;4768695;28;19921;-53
2022/03/09 11:37:37;;;;;;;;;;;;;;;;;;4696483;28;20652;-55
2022/03/09 11:40:02;;;;;;;;;;;;;;;;;;4670228;28;23419;-56
2022/03/09 11:42:28;;;;;;;;;;;;;;;;;;4657336;28;21314;-56
2022/03/09 11:44:53;;;;;;;;;;;;;;;;;;4689594;28;21135;-53
2022/03/09 11:47:18;;;;;;;;;;;;;;;;;;4713132;28;19921;-53
2022/03/09 11:49:45;;;;;;;;;;;;;;;;;;4687932;28;20712;-52
2022/03/09 11:52:10;;;;;;;;;;;;;;;;;;4707829;28;22374;-58
2022/03/09 11:54:35;;;;;;;;;;;;;;;;;;4699590;28;20407;-54
2022/03/09 11:57:00;;;;;;;;;;;;;;;;;;4724849;28;21008;-54
2022/03/09 11:59:27;;;;;;;;;;;;;;;;;;4724064;28;19925;-58
2022/03/09 12:01:52;;;;;;;;;;;;;;;;;;4692601;28;20513;-55
2022/03/09 12:04:18;;;;;;;;;;;;;;;;;;4709161;28;22210;-53
2022/03/09 12:06:43;;;;;;;;;;;;;;;;;;4777676;28;20015;-54
2022/03/09 12:09:09;;;;;;;;;;;;;;;;;;4807572;28;19935;-55
2022/03/09 12:11:34;;;;;;;;;;;;;;;;;;4834631;28;20081;-54
2022/03/09 12:13:59;;;;;;;;;;;;;;;;;;4818262;28;21619;-53
2022/03/09 12:16:26;;;;;;;;;;;;;;;;;;4817940;28;20686;-56
2022/03/09 12:18:51;;;;;;;;;;;;;;;;;;4833885;28;20072;-55
2022/03/09 12:21:16;;;;;;;;;;;;;;;;;;4834196;28;19921;-54
2022/03/09 12:23:41;;;;;;;;;;;;;;;;;;4808242;28;21615;-54
2022/03/09 12:26:06;;;;;;;;;;;;;;;;;;4803979;28;19928;-55
2022/03/09 12:28:32;;;;;;;;;;;;;;;;;;4749074;28;19925;-55
2022/03/09 12:30:57;;;;;;;;;;;;;;;;;;4692741;28;21463;-55
2022/03/09 12:33:22;;;;;;;;;;;;;;;;;;4697164;28;20517;-52
2022/03/09 12:35:47;;;;;;;;;;;;;;;;;;4699124;28;20620;-54
2022/03/09 12:38:12;;;;;;;;;;;;;;;;;;4691596;28;20988;-55
2022/03/09 12:40:37;;;;;;;;;;;;;;;;;;4725509;28;19925;-55
2022/03/09 12:43:02;;;;;;;;;;;;;;;;;;4741028;28;20047;-55
2022/03/09 12:45:27;;;;;;;;;;;;;;;;;;4748622;28;20465;-55
2022/03/09 12:47:54;;;;;;;;;;;;;;;;;;4766905;28;20739;-57
2022/03/09 12:50:19;;;;;;;;;;;;;;;;;;4788332;28;20353;-52
2022/03/09 12:52:45;;;;;;;;;;;;;;;;;;4783683;28;25705;-56
2022/03/09 12:55:10;;;;;;;;;;;;;;;;;;4765988;28;19967;-54
2022/03/09 12:57:35;;;;;;;;;;;;;;;;;;4775480;28;20231;-55
2022/03/09 13:00:00;;;;;;;;;;;;;;;;;;4771807;28;19921;-55
2022/03/09 13:02:25;;;;;;;;;;;;;;;;;;4804951;28;24191;-56
2022/03/09 13:04:50;;;;;;;;;;;;;;;;;;4761945;28;19943;-55
2022/03/09 13:07:15;;;;;;;;;;;;;;;;;;4788936;28;21103;-55
2022/03/09 13:09:44;;;;;;;;;;;;;;;;;;4803015;28;22143;-55
2022/03/09 13:12:09;;;;;;;;;;;;;;;;;;4788956;28;20525;-56
2022/03/09 13:14:34;;;;;;;;;;;;;;;;;;4762405;28;21551;-55
2022/03/09 13:16:59;;;;;;;;;;;;;;;;;;4739962;28;21696;-57
2022/03/09 13:19:24;;;;;;;;;;;;;;;;;;4752162;28;19936;-56
2022/03/09 13:21:51;;;;;;;;;;;;;;;;;;4772903;28;19928;-55
2022/03/09 13:24:16;;;;;;;;;;;;;;;;;;4767772;28;28072;-54
2022/03/09 13:26:41;;;;;;;;;;;;;;;;;;4755955;28;19922;-56
2022/03/09 13:29:07;;;;;;;;;;;;;;;;;;4779354;28;19968;-56
2022/03/09 13:31:32;;;;;;;;;;;;;;;;;;4841403;28;20174;-55
2022/03/09 13:33:57;;;;;;;;;;;;;;;;;;4833314;28;19932;-56
2022/03/09 13:36:22;;;;;;;;;;;;;;;;;;4835328;28;20037;-55
2022/03/09 13:38:47;;;;;;;;;;;;;;;;;;4860002;28;20433;-58
2022/03/09 13:41:12;;;;;;;;;;;;;;;;;;4864373;28;20626;-55
2022/03/09 13:43:37;;;;;;;;;;;;;;;;;;4876776;28;19971;-54
2022/03/09 13:46:03;;;;;;;;;;;;;;;;;;4860299;28;20597;-54
2022/03/09 13:48:28;;;;;;;;;;;;;;;;;;4865076;28;19925;-54
2022/03/09 13:50:53;;;;;;;;;;;;;;;;;;4861434;28;21002;-55
2022/03/09 13:53:18;;;;;;;;;;;;;;;;;;4856805;28;21600;-55
2022/03/09 13:55:43;;;;;;;;;;;;;;;;;;4842780;28;19925;-51
2022/03/09 13:58:09;;;;;;;;;;;;;;;;;;4861918;28;20042;-55
2022/03/09 14:00:36;;;;;;;;;;;;;;;;;;4887931;28;20407;-55
2022/03/09 14:03:01;;;;;;;;;;;;;;;;;;4856203;28;23928;-56
2022/03/09 14:05:26;;;;;;;;;;;;;;;;;;4825455;28;19935;-55
2022/03/09 14:07:51;;;;;;;;;;;;;;;;;;4830782;28;21530;-56
2022/03/09 14:10:16;;;;;;;;;;;;;;;;;;4803350;28;20599;-58
2022/03/09 14:12:41;;;;;;;;;;;;;;;;;;4775938;28;24678;-56
2022/03/09 14:15:07;;;;;;;;;;;;;;;;;;4720384;28;21689;-55
2022/03/09 14:17:32;;;;;;;;;;;;;;;;;;4801273;28;20842;-54
2022/03/09 14:19:57;;;;;;;;;;;;;;;;;;4887204;28;20099;-54
2022/03/09 14:22:22;;;;;;;;;;;;;;;;;;4931495;28;19921;-55
2022/03/09 14:24:47;;;;;;;;;;;;;;;;;;4969020;28;19921;-56
2022/03/09 14:27:12;;;;;;;;;;;;;;;;;;4968000;28;19921;-55
2022/03/09 14:29:38;;;;;;;;;;;;;;;;;;4966360;28;19921;-52
2022/03/09 14:32:03;;;;;;;;;;;;;;;;;;4972709;28;19925;-56
2022/03/09 14:34:28;;;;;;;;;;;;;;;;;;4956596;28;19925;-56
2022/03/09 14:36:53;;;;;;;;;;;;;;;;;;4961454;28;20107;-54
2022/03/09 14:39:20;;;;;;;;;;;;;;;;;;4965809;28;19997;-56
2022/03/09 14:41:46;;;;;;;;;;;;;;;;;;4965758;28;19921;-57
2022/03/09 14:44:11;;;;;;;;;;;;;;;;;;4970111;28;20693;-55
2022/03/09 14:46:36;;;;;;;;;;;;;;;;;;4975938;28;19932;-55
2022/03/09 14:49:02;;;;;;;;;;;;;;;;;;4972664;28;20672;-55
2022/03/09 14:51:27;;;;;;;;;;;;;;;;;;4973215;28;22836;-56
2022/03/09 14:53:52;;;;;;;;;;;;;;;;;;4953761;28;19925;-55
2022/03/09 14:56:17;;;;;;;;;;;;;;;;;;4951487;28;19921;-55
2022/03/09 14:58:43;;;;;;;;;;;;;;;;;;4953768;28;20071;-55
2022/03/09 15:01:08;;;;;;;;;;;;;;;;;;4917774;28;20277;-55
2022/03/09 15:03:34;;;;;;;;;;;;;;;;;;4900215;28;22098;-55
2022/03/09 15:05:59;;;;;;;;;;;;;;;;;;4917364;28;19968;-55
2022/03/09 15:08:27;;;;;;;;;;;;;;;;;;4963855;28;19939;-55
2022/03/09 15:10:52;;;;;;;;;;;;;;;;;;4978949;28;20548;-55
2022/03/09 15:13:18;;;;;;;;;;;;;;;;;;4998349;28;19925;-55
2022/03/09 15:15:43;;;;;;;;;;;;;;;;;;5004212;28;19928;-55
2022/03/09 15:18:10;;;;;;;;;;;;;;;;;;5004181;28;19929;-55
2022/03/09 15:20:35;;;;;;;;;;;;;;;;;;5003988;28;19956;-55
2022/03/09 15:23:00;;;;;;;;;;;;;;;;;;5006823;28;19959;-55
2022/03/09 15:25:25;;;;;;;;;;;;;;;;;;5009303;28;20008;-55
2022/03/09 15:27:50;;;;;;;;;;;;;;;;;;5011055;28;19947;-57
2022/03/09 15:30:15;;;;;;;;;;;;;;;;;;5001100;28;20007;-58
2022/03/09 15:32:40;;;;;;;;;;;;;;;;;;5002877;28;20008;-55
2022/03/09 15:35:05;;;;;;;;;;;;;;;;;;5014303;28;19968;-56
2022/03/09 15:37:31;;;;;;;;;;;;;;;;;;5006501;28;19921;-54
2022/03/09 15:39:58;;;;;;;;;;;;;;;;;;5005083;28;19917;-55
2022/03/09 15:42:23;;;;;;;;;;;;;;;;;;5007135;28;19964;-56
2022/03/09 15:44:48;;;;;;;;;;;;;;;;;;5004125;28;19921;-55
2022/03/09 15:47:13;;;;;;;;;;;;;;;;;;4992178;28;20640;-55
2022/03/09 15:49:38;;;;;;;;;;;;;;;;;;5011162;28;20467;-55
2022/03/09 15:52:03;;;;;;;;;;;;;;;;;;4979714;28;19967;-55
2022/03/09 15:54:28;;;;;;;;;;;;;;;;;;4987709;28;20075;-56
2022/03/09 15:56:54;;;;;;;;;;;;;;;;;;4994787;28;19960;-55
2022/03/09 15:59:19;;;;;;;;;;;;;;;;;;5006531;28;20418;-55
2022/03/09 16:01:44;;;;;;;;;;;;;;;;;;5004291;28;20355;-55
2022/03/09 16:04:10;;;;;;;;;;;;;;;;;;5010500;28;19999;-58
2022/03/09 16:06:35;;;;;;;;;;;;;;;;;;5020320;28;19928;-56
2022/03/09 16:09:00;;;;;;;;;;;;;;;;;;5025272;28;19921;-56
2022/03/09 16:11:25;;;;;;;;;;;;;;;;;;5020792;28;20311;-55
2022/03/09 16:13:50;;;;;;;;;;;;;;;;;;5023301;28;19925;-55
2022/03/09 16:16:18;;;;;;;;;;;;;;;;;;5017024;28;19920;-56
2022/03/09 16:18:46;;;;;;;;;;;;;;;;;;5025996;28;19964;-55
2022/03/09 16:21:12;;;;;;;;;;;;;;;;;;5023352;28;19924;-57
2022/03/09 16:23:37;;;;;;;;;;;;;;;;;;5024178;28;20291;-55
2022/03/09 16:26:02;;;;;;;;;;;;;;;;;;5019648;28;20016;-55
2022/03/09 16:28:27;;;;;;;;;;;;;;;;;;5023366;28;19929;-58
2022/03/09 16:30:52;;;;;;;;;;;;;;;;;;5026938;28;19913;-56
2022/03/09 16:33:17;;;;;;;;;;;;;;;;;;5026034;28;19968;-56